SBCJ/CKS METAR and TAF weather

Enter ICAO airport designator
Station Type Date Time Source
SBCJ METAR 2022/08/13 11:00 UTC NOAA

SBCJ 131100Z 05003KT 8000 -RA SCT030 BKN070 23/20 Q1019


Station Type Date Time Source
SBCJ Decoded METAR 2022/08/13 11:00 UTC NOAA

Carajas / Maraba, Brazil (SBCJ) 06-07S 050-00W
Aug 13, 2022 - 07:00 AM EDT / 2022.08.13 1100 UTC
Wind: from the NE (050 degrees) at 3 MPH (3 KT):0
Visibility: 4 mile(s):0
Sky conditions: mostly cloudy
Weather: light rain
Temperature: 73 F (23 C)
Dew Point: 68 F (20 C)
Relative Humidity: 83%
Pressure (altimeter): 30.09 in. Hg (1019 hPa)
ob: SBCJ 131100Z 05003KT 8000 -RA SCT030 BKN070 23/20 Q1019
cycle: 11

Station Type Date Time Source
SBCJ TAF 2022/08/13 12:57 UTC NOAA

TAF TAF SBCJ 130855Z 1312/1324 35005KT CAVOK TX31/1318Z TN25/1324Z
BECMG 1316/1318 08010KT SCT030 FEW035TCU
TEMPO 1318/1321 11015G25KT 8000 TSRA BKN030 FEW035CB
BECMG 1322/1324 32002KT CAVOK
RMK PFV

Example: see airport list